createdAt,value
2023-09-08T00:00:00.042Z,3.55
2023-09-08T00:02:28.062Z,3.53
2023-09-08T00:04:55.747Z,3.08
2023-09-08T00:07:22.855Z,3.80
2023-09-08T00:09:49.842Z,3.28
2023-09-08T00:12:17.020Z,3.20
2023-09-08T00:14:44.200Z,3.50
2023-09-08T00:17:11.205Z,2.95
2023-09-08T00:19:39.593Z,2.97
2023-09-08T00:22:09.917Z,2.78
2023-09-08T00:24:36.974Z,3.53
2023-09-08T00:27:03.913Z,3.33
2023-09-08T00:29:30.842Z,2.75
2023-09-08T00:31:57.724Z,3.30
2023-09-08T00:34:24.630Z,3.22
2023-09-08T00:36:52.473Z,3.38
2023-09-08T00:39:19.392Z,3.42
2023-09-08T00:41:46.256Z,4.40
2023-09-08T00:44:13.199Z,4.68
2023-09-08T00:46:41.220Z,3.38
2023-09-08T00:49:10.450Z,4.00
2023-09-08T00:51:39.213Z,4.55
2023-09-08T00:54:07.955Z,3.33
2023-09-08T00:56:36.249Z,3.97
2023-09-08T00:59:03.888Z,3.53
2023-09-08T01:01:31.066Z,3.90
2023-09-08T01:03:58.378Z,4.20
2023-09-08T01:06:25.640Z,3.88
2023-09-08T01:08:53.899Z,4.57
2023-09-08T01:11:21.482Z,4.78
2023-09-08T01:13:49.167Z,4.40
2023-09-08T01:16:15.984Z,4.25
2023-09-08T01:18:43.074Z,4.20
2023-09-08T01:21:33.413Z,4.15
2023-09-08T01:24:12.437Z,4.57
2023-09-08T01:26:42.877Z,4.63
2023-09-08T01:29:11.984Z,4.57
2023-09-08T01:31:39.656Z,3.88
2023-09-08T01:34:08.468Z,4.25
2023-09-08T01:36:38.576Z,4.03
2023-09-08T01:39:05.831Z,4.07
2023-09-08T01:41:33.697Z,3.78
2023-09-08T01:44:06.402Z,5.00
2023-09-08T01:46:35.743Z,4.65
2023-09-08T01:49:02.875Z,4.72
2023-09-08T01:51:30.039Z,4.68
2023-09-08T01:53:56.963Z,4.47
2023-09-08T01:56:24.378Z,4.82
2023-09-08T01:58:51.669Z,4.70
2023-09-08T02:01:18.768Z,4.15
2023-09-08T02:03:45.638Z,4.85
2023-09-08T02:06:12.861Z,5.30
2023-09-08T02:08:39.892Z,4.63
2023-09-08T02:11:07.614Z,4.55
2023-09-08T02:13:34.594Z,4.35
2023-09-08T02:16:01.985Z,4.13
2023-09-08T02:18:30.287Z,4.20
2023-09-08T02:20:57.606Z,4.22
2023-09-08T02:23:25.257Z,4.00
2023-09-08T02:25:52.310Z,3.97
2023-09-08T02:28:19.904Z,3.88
2023-09-08T02:30:47.663Z,3.88
2023-09-08T02:33:14.692Z,4.78
2023-09-08T02:35:41.835Z,4.68
2023-09-08T02:38:09.884Z,4.40
2023-09-08T02:40:37.817Z,4.57
2023-09-08T02:43:06.115Z,4.93
2023-09-08T02:45:35.202Z,4.75
2023-09-08T02:48:04.104Z,4.97
2023-09-08T02:50:31.608Z,5.10
2023-09-08T02:52:58.522Z,5.15
2023-09-08T02:55:25.360Z,4.97
2023-09-08T02:57:52.867Z,4.75
2023-09-08T03:00:20.122Z,5.03
2023-09-08T03:02:47.543Z,5.68
2023-09-08T03:05:15.054Z,5.32
2023-09-08T03:07:42.217Z,5.13
2023-09-08T03:10:10.549Z,5.30
2023-09-08T03:12:37.722Z,5.65
2023-09-08T03:15:05.549Z,5.72
2023-09-08T03:17:32.964Z,5.82
2023-09-08T03:20:00.041Z,5.43
2023-09-08T03:22:27.469Z,4.97
2023-09-08T03:24:54.760Z,5.18
2023-09-08T03:27:22.821Z,4.93
2023-09-08T03:29:50.453Z,4.78
2023-09-08T03:32:17.856Z,4.65
2023-09-08T03:34:45.275Z,5.32
2023-09-08T03:37:12.236Z,4.50
2023-09-08T03:39:39.712Z,5.07
2023-09-08T03:42:07.154Z,5.70
2023-09-08T03:44:35.053Z,5.50
2023-09-08T03:47:04.416Z,6.15
2023-09-08T03:49:32.338Z,5.70
2023-09-08T03:52:00.647Z,6.80
2023-09-08T03:54:27.609Z,6.75
2023-09-08T03:56:55.773Z,6.72
2023-09-08T03:59:22.921Z,7.13
2023-09-08T04:01:49.986Z,6.72
2023-09-08T04:04:17.252Z,7.30
2023-09-08T04:06:44.348Z,6.65
2023-09-08T04:09:11.242Z,5.50
2023-09-08T04:11:38.210Z,4.50
2023-09-08T04:14:05.261Z,4.30
2023-09-08T04:16:32.348Z,3.78
2023-09-08T04:18:59.719Z,3.42
2023-09-08T04:21:27.638Z,3.15
2023-09-08T04:23:55.149Z,3.03
2023-09-08T04:26:22.508Z,2.92
2023-09-08T04:28:49.816Z,3.08
2023-09-08T04:31:17.976Z,2.78
2023-09-08T04:33:45.289Z,3.05
2023-09-08T04:36:14.527Z,3.00
2023-09-08T04:38:43.057Z,3.75
2023-09-08T04:41:12.185Z,3.38
2023-09-08T04:43:39.523Z,3.58
2023-09-08T04:46:06.548Z,3.55
2023-09-08T04:48:34.682Z,3.30
2023-09-08T04:51:02.520Z,3.65
2023-09-08T04:53:30.343Z,3.22
2023-09-08T04:55:58.000Z,2.90
2023-09-08T04:58:25.208Z,3.33
2023-09-08T05:00:52.714Z,3.58
2023-09-08T05:03:19.864Z,2.80
2023-09-08T05:05:47.055Z,3.00
2023-09-08T05:08:15.106Z,3.40
2023-09-08T05:10:42.095Z,2.97
2023-09-08T05:13:14.084Z,2.95
2023-09-08T05:15:53.636Z,2.90
2023-09-08T05:18:20.884Z,2.78
2023-09-08T05:20:49.697Z,2.78
2023-09-08T05:23:16.995Z,2.80
2023-09-08T05:25:43.936Z,2.53
2023-09-08T05:28:10.776Z,2.38
2023-09-08T05:30:37.729Z,3.38
2023-09-08T05:33:05.465Z,2.30
2023-09-08T05:35:32.503Z,2.70
2023-09-08T05:37:59.365Z,2.35
2023-09-08T05:40:27.634Z,2.33
2023-09-08T05:42:54.817Z,2.45
2023-09-08T05:45:22.279Z,1.98
2023-09-08T05:47:52.155Z,2.47
2023-09-08T05:50:20.015Z,2.60
2023-09-08T05:52:47.304Z,2.53
2023-09-08T05:55:14.332Z,1.98
2023-09-08T05:57:42.108Z,2.55
2023-09-08T06:00:09.968Z,2.40
2023-09-08T06:02:47.530Z,2.60
2023-09-08T06:05:17.394Z,2.05
2023-09-08T06:07:57.093Z,2.33
2023-09-08T06:10:32.036Z,1.98
2023-09-08T06:13:02.224Z,2.38
2023-09-08T06:15:29.564Z,1.88
2023-09-08T06:17:56.791Z,2.50
2023-09-08T06:20:25.474Z,2.20
2023-09-08T06:22:52.408Z,1.70
2023-09-08T06:25:20.080Z,1.50
2023-09-08T06:27:47.309Z,4.18
2023-09-08T06:30:17.334Z,2.70
2023-09-08T06:32:44.726Z,3.60
2023-09-08T06:35:12.566Z,7.95
2023-09-08T06:37:40.272Z,5.75
2023-09-08T06:40:08.559Z,5.10
2023-09-08T06:42:35.787Z,3.15
2023-09-08T06:45:12.907Z,3.38
2023-09-08T06:47:40.061Z,2.63
2023-09-08T06:50:08.102Z,1.92
2023-09-08T06:52:35.179Z,1.48
2023-09-08T06:55:02.345Z,1.80
2023-09-08T06:57:29.600Z,1.42
2023-09-08T06:59:56.447Z,2.08
2023-09-08T07:02:23.640Z,1.58
2023-09-08T07:04:50.851Z,1.50
2023-09-08T07:07:19.920Z,1.27
2023-09-08T07:09:47.935Z,1.30
2023-09-08T07:12:15.187Z,1.48
2023-09-08T07:14:42.240Z,1.40
2023-09-08T07:17:09.233Z,1.33
2023-09-08T07:19:36.321Z,1.33
2023-09-08T07:22:03.290Z,1.40
2023-09-08T07:24:30.765Z,1.00
2023-09-08T07:26:57.911Z,1.40
2023-09-08T07:29:25.359Z,1.23
2023-09-08T07:31:52.443Z,1.00
2023-09-08T07:34:19.332Z,1.35
2023-09-08T07:36:46.257Z,1.40
2023-09-08T07:39:13.414Z,1.20
2023-09-08T07:41:41.602Z,1.13
2023-09-08T07:44:10.419Z,1.30
2023-09-08T07:46:37.362Z,1.25
2023-09-08T07:49:04.371Z,1.35
2023-09-08T07:51:32.122Z,1.25
2023-09-08T07:53:59.322Z,1.00
2023-09-08T07:56:26.433Z,1.20
2023-09-08T07:58:53.244Z,0.85
2023-09-08T08:01:20.160Z,1.08
2023-09-08T08:03:47.091Z,1.02
2023-09-08T08:06:14.032Z,0.98
2023-09-08T08:08:41.570Z,1.10
2023-09-08T08:11:13.597Z,0.93
2023-09-08T08:13:40.660Z,1.05
2023-09-08T08:16:09.046Z,0.90
2023-09-08T08:18:36.458Z,0.80
2023-09-08T08:21:04.723Z,1.25
2023-09-08T08:23:32.290Z,0.85
2023-09-08T08:26:00.261Z,1.00
2023-09-08T08:28:27.200Z,1.30
2023-09-08T08:30:54.152Z,1.10
2023-09-08T08:33:22.230Z,1.00
2023-09-08T08:35:53.831Z,1.27
2023-09-08T08:38:21.022Z,1.02
2023-09-08T08:40:47.962Z,1.05
2023-09-08T08:43:15.045Z,1.40
2023-09-08T08:45:44.548Z,1.00
2023-09-08T08:48:13.003Z,1.10
2023-09-08T08:50:41.466Z,1.10
2023-09-08T08:53:10.297Z,1.08
2023-09-08T08:55:37.391Z,1.20
2023-09-08T08:58:07.720Z,1.02
2023-09-08T09:00:40.327Z,0.80
2023-09-08T09:03:15.409Z,1.08
2023-09-08T09:05:48.561Z,0.85
2023-09-08T09:08:17.727Z,1.10
2023-09-08T09:10:44.623Z,1.10
2023-09-08T09:13:11.463Z,0.98
2023-09-08T09:15:39.038Z,0.90
2023-09-08T09:18:07.391Z,1.00
2023-09-08T09:20:35.576Z,1.17
2023-09-08T09:23:02.724Z,1.35
2023-09-08T09:25:31.495Z,1.10
2023-09-08T09:28:01.711Z,0.88
2023-09-08T09:30:31.481Z,1.02
2023-09-08T09:33:03.434Z,0.95
2023-09-08T09:35:43.724Z,1.00
2023-09-08T09:38:11.155Z,1.23
2023-09-08T09:40:39.048Z,0.80
2023-09-08T09:43:07.137Z,1.17
2023-09-08T09:45:38.360Z,1.10
2023-09-08T09:48:06.738Z,1.13
2023-09-08T09:50:35.649Z,1.00
2023-09-08T09:53:04.547Z,0.90
2023-09-08T09:55:32.389Z,0.95
2023-09-08T09:58:01.841Z,0.90
2023-09-08T10:00:29.679Z,1.10
2023-09-08T10:02:57.771Z,1.05
2023-09-08T10:05:26.137Z,1.10
2023-09-08T10:07:53.290Z,0.95
2023-09-08T10:10:21.538Z,0.93
2023-09-08T10:12:57.936Z,1.20
2023-09-08T10:15:26.037Z,0.98
2023-09-08T10:17:58.677Z,0.98
2023-09-08T10:20:26.622Z,1.08
2023-09-08T10:23:17.022Z,0.90
2023-09-08T10:25:50.690Z,0.93
2023-09-08T10:28:18.850Z,0.88
2023-09-08T10:30:46.490Z,0.95
2023-09-08T10:33:14.150Z,0.98
2023-09-08T10:35:41.667Z,1.00
2023-09-08T10:38:29.954Z,1.13
2023-09-08T10:41:18.869Z,1.05
2023-09-08T10:44:02.379Z,0.80
2023-09-08T10:46:31.812Z,0.88
2023-09-08T10:49:04.945Z,1.00
2023-09-08T10:51:32.281Z,0.70
2023-09-08T10:53:59.519Z,0.82
2023-09-08T10:56:50.944Z,1.05
2023-09-08T11:01:45.115Z,1.30
2023-09-08T11:04:14.538Z,1.00
2023-09-08T11:06:41.534Z,1.08
2023-09-08T11:09:09.365Z,1.08
2023-09-08T11:11:37.998Z,0.77
2023-09-08T11:14:05.311Z,1.23
2023-09-08T11:16:34.439Z,1.20
2023-09-08T11:19:06.039Z,1.08
2023-09-08T11:21:36.381Z,1.10
2023-09-08T11:24:06.010Z,1.20
2023-09-08T11:26:36.254Z,1.10
2023-09-08T11:29:04.005Z,1.17
2023-09-08T11:31:30.986Z,1.45
2023-09-08T11:33:59.698Z,1.10
2023-09-08T11:36:27.019Z,1.17
2023-09-08T11:38:53.905Z,1.05
2023-09-08T11:41:24.747Z,1.25
2023-09-08T11:43:52.943Z,1.20
2023-09-08T11:46:20.762Z,0.90
2023-09-08T11:48:48.016Z,0.98
2023-09-08T11:51:16.068Z,1.00
2023-09-08T11:53:46.510Z,1.10
2023-09-08T11:56:13.448Z,1.10
2023-09-08T11:58:41.233Z,1.60
2023-09-08T12:01:08.541Z,1.50
2023-09-08T12:03:35.857Z,0.95
2023-09-08T12:06:03.805Z,1.42
2023-09-08T12:08:31.707Z,1.08
2023-09-08T12:10:58.633Z,0.93
2023-09-08T12:13:25.549Z,1.20
2023-09-08T12:15:52.566Z,1.08
2023-09-08T12:18:19.742Z,1.30
2023-09-08T12:20:46.661Z,1.10
2023-09-08T12:23:21.877Z,1.10
2023-09-08T12:25:50.221Z,1.13
2023-09-08T12:28:19.490Z,1.05
2023-09-08T12:30:46.686Z,1.33
2023-09-08T12:33:16.360Z,1.20
2023-09-08T12:35:47.645Z,1.10
2023-09-08T12:38:14.928Z,0.93
2023-09-08T12:40:41.828Z,0.93
2023-09-08T12:43:17.986Z,1.05
2023-09-08T12:45:54.669Z,1.10
2023-09-08T12:48:21.901Z,1.60
2023-09-08T12:50:52.092Z,1.15
2023-09-08T12:53:19.593Z,1.20
2023-09-08T12:55:47.789Z,1.10
2023-09-08T12:58:15.892Z,1.10
2023-09-08T13:00:43.997Z,1.38
2023-09-08T13:03:11.057Z,1.23
2023-09-08T13:05:39.964Z,1.40
2023-09-08T13:08:07.403Z,1.20
2023-09-08T13:10:34.863Z,1.40
2023-09-08T13:13:03.260Z,1.10
2023-09-08T13:15:30.449Z,1.40
2023-09-08T13:17:57.771Z,1.20
2023-09-08T13:20:24.994Z,1.00
2023-09-08T13:22:52.082Z,1.17
2023-09-08T13:25:19.082Z,1.20
2023-09-08T13:27:45.996Z,1.10
2023-09-08T13:30:14.749Z,1.02
2023-09-08T13:32:42.776Z,1.50
2023-09-08T13:35:10.009Z,1.05
2023-09-08T13:37:39.159Z,1.35
2023-09-08T13:40:07.222Z,1.05
2023-09-08T13:42:34.499Z,0.90
2023-09-08T13:45:02.009Z,1.05
2023-09-08T13:47:29.506Z,0.95
2023-09-08T13:49:58.856Z,1.05
2023-09-08T13:52:28.296Z,1.30
2023-09-08T13:57:29.351Z,0.90
2023-09-08T13:59:57.990Z,1.20
2023-09-08T14:04:56.736Z,1.60
2023-09-08T14:12:34.492Z,1.27
2023-09-08T14:15:03.326Z,1.20
2023-09-08T14:17:30.424Z,1.00
2023-09-08T14:19:57.417Z,1.17
2023-09-08T14:22:24.767Z,1.08
2023-09-08T14:24:51.577Z,1.00
2023-09-08T14:27:18.431Z,1.40
2023-09-08T14:29:45.268Z,1.15
2023-09-08T14:32:12.061Z,1.10
2023-09-08T14:34:38.930Z,1.08
2023-09-08T14:37:07.949Z,1.13
2023-09-08T14:39:36.677Z,1.35
2023-09-08T14:42:03.918Z,1.10
2023-09-08T14:44:30.934Z,1.27
2023-09-08T14:46:57.799Z,1.48
2023-09-08T14:49:24.633Z,1.67
2023-09-08T14:51:51.384Z,1.40
2023-09-08T14:54:19.063Z,1.10
2023-09-08T14:56:45.970Z,1.00
2023-09-08T14:59:12.951Z,1.15
2023-09-08T15:01:41.965Z,1.23
2023-09-08T15:04:09.219Z,1.33
2023-09-08T15:06:36.152Z,1.00
2023-09-08T15:09:03.182Z,1.30
2023-09-08T15:11:30.155Z,1.55
2023-09-08T15:13:57.013Z,1.05
2023-09-08T15:16:23.946Z,1.40
2023-09-08T15:18:51.446Z,1.92
2023-09-08T15:21:19.976Z,2.63
2023-09-08T15:23:46.898Z,3.38
2023-09-08T15:26:14.427Z,2.38
2023-09-08T15:28:41.346Z,6.88
2023-09-08T15:31:08.275Z,3.30
2023-09-08T15:33:35.543Z,4.47
2023-09-08T15:36:02.905Z,3.63
2023-09-08T15:38:29.927Z,2.80
2023-09-08T15:41:09.660Z,2.05
2023-09-08T15:43:41.588Z,1.90
2023-09-08T15:46:09.510Z,1.75
2023-09-08T15:48:38.019Z,2.03
2023-09-08T15:51:06.233Z,1.90
2023-09-08T15:53:33.172Z,2.05
2023-09-08T15:56:00.185Z,1.50
2023-09-08T15:58:27.159Z,2.03
2023-09-08T16:00:54.337Z,1.83
2023-09-08T16:03:22.000Z,1.70
2023-09-08T16:05:49.619Z,1.60
2023-09-08T16:08:16.740Z,1.92
2023-09-08T16:10:44.560Z,1.52
2023-09-08T16:13:11.745Z,1.38
2023-09-08T16:15:39.890Z,1.60
2023-09-08T16:18:07.352Z,1.70
2023-09-08T16:20:34.213Z,1.52
2023-09-08T16:23:01.372Z,2.95
2023-09-08T16:25:28.367Z,3.55
2023-09-08T16:27:55.291Z,2.85
2023-09-08T16:30:22.412Z,3.22
2023-09-08T16:32:49.306Z,2.20
2023-09-08T16:35:16.497Z,2.58
2023-09-08T16:37:44.665Z,2.70
2023-09-08T16:40:11.773Z,3.30
2023-09-08T16:42:38.637Z,2.90
2023-09-08T16:45:06.308Z,3.20
2023-09-08T16:47:33.435Z,4.22
2023-09-08T16:50:00.236Z,4.10
2023-09-08T16:52:27.232Z,4.75
2023-09-08T16:54:54.142Z,6.43
2023-09-08T16:57:21.083Z,4.43
2023-09-08T16:59:48.432Z,3.63
2023-09-08T17:02:15.471Z,4.13
2023-09-08T17:04:45.247Z,3.63
2023-09-08T17:07:12.606Z,3.20
2023-09-08T17:09:39.531Z,3.15
2023-09-08T17:12:08.366Z,2.28
2023-09-08T17:14:35.872Z,2.70
2023-09-08T17:17:02.853Z,2.80
2023-09-08T17:19:30.312Z,3.22
2023-09-08T17:21:58.270Z,2.92
2023-09-08T17:24:25.429Z,3.67
2023-09-08T17:26:52.365Z,3.72
2023-09-08T17:29:19.278Z,3.88
2023-09-08T17:31:46.117Z,4.25
2023-09-08T17:34:20.048Z,3.95
2023-09-08T17:36:56.871Z,4.30
2023-09-08T17:39:24.666Z,4.18
2023-09-08T17:41:51.696Z,4.20
2023-09-08T17:44:19.369Z,3.28
2023-09-08T17:46:46.552Z,3.38
2023-09-08T17:49:13.505Z,3.22
2023-09-08T17:51:40.387Z,5.18
2023-09-08T17:54:07.397Z,4.00
2023-09-08T17:56:35.392Z,4.43
2023-09-08T17:59:02.397Z,4.28
2023-09-08T18:01:29.451Z,4.40
2023-09-08T18:03:56.572Z,4.78
2023-09-08T18:06:23.599Z,3.75
2023-09-08T18:08:52.899Z,4.75
2023-09-08T18:11:22.233Z,3.60
2023-09-08T18:13:50.008Z,3.72
2023-09-08T18:16:17.298Z,4.53
2023-09-08T18:18:46.817Z,3.95
2023-09-08T18:21:14.603Z,3.63
2023-09-08T18:23:42.188Z,2.95
2023-09-08T18:26:09.410Z,3.65
2023-09-08T18:28:36.434Z,3.50
2023-09-08T18:31:03.785Z,3.55
2023-09-08T18:33:30.926Z,3.50
2023-09-08T18:35:57.900Z,3.83
2023-09-08T18:38:24.822Z,3.83
2023-09-08T18:40:52.057Z,3.28
2023-09-08T18:43:19.452Z,3.47
2023-09-08T18:45:47.324Z,3.17
2023-09-08T18:48:14.643Z,3.55
2023-09-08T18:50:43.175Z,3.33
2023-09-08T18:53:12.741Z,3.78
2023-09-08T18:55:39.697Z,3.83
2023-09-08T18:58:07.617Z,3.75
2023-09-08T19:00:34.884Z,3.30
2023-09-08T19:03:01.951Z,3.95
2023-09-08T19:05:29.438Z,3.92
2023-09-08T19:07:56.247Z,3.78
2023-09-08T19:10:23.142Z,3.53
2023-09-08T19:12:50.053Z,4.50
2023-09-08T19:15:18.450Z,5.18
2023-09-08T19:17:46.882Z,3.85
2023-09-08T19:20:13.902Z,3.97
2023-09-08T19:22:41.003Z,2.80
2023-09-08T19:25:09.167Z,2.80
2023-09-08T19:27:36.668Z,2.80
2023-09-08T19:30:06.976Z,3.35
2023-09-08T19:32:34.564Z,3.10
2023-09-08T19:35:01.631Z,3.40
2023-09-08T19:37:28.729Z,3.47
2023-09-08T19:39:55.711Z,3.35
2023-09-08T19:42:22.661Z,3.58
2023-09-08T19:44:49.525Z,3.53
2023-09-08T19:47:16.385Z,3.22
2023-09-08T19:49:43.953Z,3.58
2023-09-08T19:52:13.720Z,3.90
2023-09-08T19:54:40.661Z,3.55
2023-09-08T19:57:07.500Z,3.85
2023-09-08T19:59:34.384Z,4.20
2023-09-08T20:02:01.304Z,4.40
2023-09-08T20:04:28.269Z,3.35
2023-09-08T20:06:58.400Z,3.65
2023-09-08T20:09:25.799Z,2.95
2023-09-08T20:11:53.070Z,3.08
2023-09-08T20:14:20.035Z,3.38
2023-09-08T20:16:46.998Z,3.05
2023-09-08T20:19:14.345Z,3.28
2023-09-08T20:21:41.631Z,3.08
2023-09-08T20:24:08.809Z,3.42
2023-09-08T20:26:35.848Z,3.78
2023-09-08T20:29:03.300Z,3.13
2023-09-08T20:31:30.967Z,3.15
2023-09-08T20:33:57.885Z,3.03
2023-09-08T20:36:24.937Z,3.47
2023-09-08T20:38:51.881Z,3.40
2023-09-08T20:41:18.960Z,3.47
2023-09-08T20:43:46.458Z,3.03
2023-09-08T20:46:13.735Z,3.08
2023-09-08T20:48:41.127Z,3.55
2023-09-08T20:51:10.288Z,3.22
2023-09-08T20:53:40.003Z,3.05
2023-09-08T20:56:10.481Z,2.95
2023-09-08T20:58:38.391Z,2.63
2023-09-08T21:01:05.599Z,2.92
2023-09-08T21:03:32.881Z,2.83
2023-09-08T21:06:00.572Z,2.80
2023-09-08T21:08:27.883Z,3.17
2023-09-08T21:10:58.610Z,2.58
2023-09-08T21:13:25.906Z,3.15
2023-09-08T21:15:53.354Z,2.80
2023-09-08T21:18:20.424Z,3.10
2023-09-08T21:20:50.095Z,3.13
2023-09-08T21:23:18.363Z,3.58
2023-09-08T21:25:45.385Z,4.07
2023-09-08T21:28:12.350Z,3.63
2023-09-08T21:30:39.226Z,3.58
2023-09-08T21:33:07.035Z,3.47
2023-09-08T21:35:34.749Z,3.88
2023-09-08T21:38:01.865Z,3.70
2023-09-08T21:40:28.897Z,3.65
2023-09-08T21:42:55.844Z,3.60
2023-09-08T21:45:22.917Z,3.75
2023-09-08T21:47:51.453Z,3.58
2023-09-08T21:50:18.968Z,3.92
2023-09-08T21:52:46.247Z,4.07
2023-09-08T21:55:13.734Z,4.45
2023-09-08T21:57:40.791Z,4.32
2023-09-08T22:00:12.031Z,4.63
2023-09-08T22:02:39.381Z,4.20
2023-09-08T22:05:06.834Z,4.43
2023-09-08T22:07:34.150Z,4.35
2023-09-08T22:10:01.370Z,4.53
2023-09-08T22:12:28.401Z,4.18
2023-09-08T22:14:55.431Z,4.20
2023-09-08T22:17:22.888Z,4.13
2023-09-08T22:19:50.462Z,4.15
2023-09-08T22:22:17.388Z,4.47
2023-09-08T22:24:44.458Z,4.00
2023-09-08T22:27:11.318Z,3.40
2023-09-08T22:29:38.204Z,3.33
2023-09-08T22:32:05.433Z,4.03
2023-09-08T22:34:32.361Z,3.72
2023-09-08T22:36:59.333Z,3.78
2023-09-08T22:39:27.260Z,4.15
2023-09-08T22:41:54.211Z,3.65
2023-09-08T22:44:21.164Z,3.60
2023-09-08T22:46:48.326Z,3.80
2023-09-08T22:49:15.255Z,3.78
2023-09-08T22:51:42.629Z,4.03
2023-09-08T22:54:09.514Z,3.97
2023-09-08T22:56:36.373Z,3.83
2023-09-08T22:59:03.940Z,3.90
2023-09-08T23:01:30.892Z,3.15
2023-09-08T23:03:57.879Z,3.92
2023-09-08T23:06:24.865Z,4.03
2023-09-08T23:08:51.850Z,3.22
2023-09-08T23:11:18.825Z,3.67
2023-09-08T23:13:45.810Z,3.65
2023-09-08T23:16:13.804Z,3.45
2023-09-08T23:18:40.976Z,4.00
2023-09-08T23:21:08.043Z,3.08
2023-09-08T23:23:35.821Z,3.38
2023-09-08T23:26:05.975Z,3.20
2023-09-08T23:28:33.002Z,3.20
2023-09-08T23:30:59.863Z,3.50
2023-09-08T23:33:26.958Z,3.58
2023-09-08T23:35:53.926Z,3.40
2023-09-08T23:38:20.852Z,3.05
2023-09-08T23:40:47.858Z,2.90
2023-09-08T23:43:14.988Z,3.53
2023-09-08T23:45:46.162Z,3.30
2023-09-08T23:48:13.291Z,2.60
2023-09-08T23:50:59.658Z,2.85
2023-09-08T23:53:28.538Z,3.20
2023-09-08T23:55:56.581Z,3.50
2023-09-08T23:58:24.063Z,3.65
